sensor_id;sensor_type;location;lat;lon;timestamp;pressure;altitude;pressure_sealevel;temperature;humidity
11099;BME280;12223;42.650;23.364;2024-02-21T00:00:15;95438.53;;;4.70;75.77
11099;BME280;12223;42.650;23.364;2024-02-21T00:02:40;95442.56;;;4.92;75.64
11099;BME280;12223;42.650;23.364;2024-02-21T00:05:06;95446.72;;;4.87;74.81
11099;BME280;12223;42.650;23.364;2024-02-21T00:07:32;95446.72;;;4.87;75.59
11099;BME280;12223;42.650;23.364;2024-02-21T00:09:57;95438.38;;;5.12;74.55
11099;BME280;12223;42.650;23.364;2024-02-21T00:12:23;95440.31;;;5.10;73.68
11099;BME280;12223;42.650;23.364;2024-02-21T00:14:48;95430.91;;;4.83;75.74
11099;BME280;12223;42.650;23.364;2024-02-21T00:17:14;95438.59;;;4.83;75.21
11099;BME280;12223;42.650;23.364;2024-02-21T00:19:39;95439.78;;;4.87;75.47
11099;BME280;12223;42.650;23.364;2024-02-21T00:22:04;95437.56;;;4.78;76.31
11099;BME280;12223;42.650;23.364;2024-02-21T00:24:30;95433.84;;;4.80;76.08
11099;BME280;12223;42.650;23.364;2024-02-21T00:26:55;95435.44;;;4.81;75.71
11099;BME280;12223;42.650;23.364;2024-02-21T00:29:20;95437.13;;;4.67;75.58
11099;BME280;12223;42.650;23.364;2024-02-21T00:31:47;95425.50;;;4.71;75.03
11099;BME280;12223;42.650;23.364;2024-02-21T00:34:12;95432.56;;;4.63;75.80
11099;BME280;12223;42.650;23.364;2024-02-21T00:36:38;95433.75;;;4.67;76.13
11099;BME280;12223;42.650;23.364;2024-02-21T00:39:03;95425.94;;;4.75;74.82
11099;BME280;12223;42.650;23.364;2024-02-21T00:41:29;95428.13;;;4.78;76.39
11099;BME280;12223;42.650;23.364;2024-02-21T00:43:54;95424.41;;;4.87;75.08
11099;BME280;12223;42.650;23.364;2024-02-21T00:46:20;95423.03;;;4.85;75.85
11099;BME280;12223;42.650;23.364;2024-02-21T00:48:45;95424.78;;;4.78;74.82
11099;BME280;12223;42.650;23.364;2024-02-21T00:51:10;95425.00;;;4.83;74.81
11099;BME280;12223;42.650;23.364;2024-02-21T00:53:36;95421.47;;;4.84;75.06
11099;BME280;12223;42.650;23.364;2024-02-21T00:56:05;95432.44;;;4.71;75.28
11099;BME280;12223;42.650;23.364;2024-02-21T00:58:31;95428.34;;;4.77;74.74
11099;BME280;12223;42.650;23.364;2024-02-21T01:00:58;95421.34;;;4.98;74.74
11099;BME280;12223;42.650;23.364;2024-02-21T01:03:23;95413.47;;;5.00;75.92
11099;BME280;12223;42.650;23.364;2024-02-21T01:05:49;95414.75;;;4.76;74.52
11099;BME280;12223;42.650;23.364;2024-02-21T01:08:14;95397.69;;;4.62;75.79
11099;BME280;12223;42.650;23.364;2024-02-21T01:10:39;95401.41;;;4.53;76.42
11099;BME280;12223;42.650;23.364;2024-02-21T01:13:05;95403.94;;;4.53;77.01
11099;BME280;12223;42.650;23.364;2024-02-21T01:15:30;95411.41;;;4.48;76.64
11099;BME280;12223;42.650;23.364;2024-02-21T01:17:59;95404.94;;;4.52;77.89
11099;BME280;12223;42.650;23.364;2024-02-21T01:20:24;95403.09;;;4.46;76.58
11099;BME280;12223;42.650;23.364;2024-02-21T01:22:50;95396.00;;;4.41;76.07
11099;BME280;12223;42.650;23.364;2024-02-21T01:25:15;95401.09;;;4.41;76.83
11099;BME280;12223;42.650;23.364;2024-02-21T01:27:42;95392.75;;;4.54;76.47
11099;BME280;12223;42.650;23.364;2024-02-21T01:30:08;95387.00;;;4.52;77.26
11099;BME280;12223;42.650;23.364;2024-02-21T01:32:35;95387.53;;;4.41;78.25
11099;BME280;12223;42.650;23.364;2024-02-21T01:35:01;95391.66;;;4.35;77.18
11099;BME280;12223;42.650;23.364;2024-02-21T01:37:31;95383.19;;;4.35;77.44
11099;BME280;12223;42.650;23.364;2024-02-21T01:40:01;95389.69;;;4.37;76.37
11099;BME280;12223;42.650;23.364;2024-02-21T01:42:28;95388.53;;;4.40;76.85
11099;BME280;12223;42.650;23.364;2024-02-21T01:44:53;95373.91;;;4.34;76.08
11099;BME280;12223;42.650;23.364;2024-02-21T01:47:19;95375.53;;;4.41;76.98
11099;BME280;12223;42.650;23.364;2024-02-21T01:49:45;95375.97;;;4.45;77.56
11099;BME280;12223;42.650;23.364;2024-02-21T01:52:14;95383.53;;;4.59;75.96
11099;BME280;12223;42.650;23.364;2024-02-21T01:54:41;95370.94;;;4.64;75.73
11099;BME280;12223;42.650;23.364;2024-02-21T01:57:07;95373.34;;;4.66;75.96
11099;BME280;12223;42.650;23.364;2024-02-21T01:59:35;95367.00;;;4.62;74.91
11099;BME280;12223;42.650;23.364;2024-02-21T02:02:02;95369.66;;;4.82;74.38
11099;BME280;12223;42.650;23.364;2024-02-21T02:04:27;95374.66;;;4.96;73.84
11099;BME280;12223;42.650;23.364;2024-02-21T02:06:54;95381.38;;;4.97;73.62
11099;BME280;12223;42.650;23.364;2024-02-21T02:09:20;95374.72;;;5.16;73.58
11099;BME280;12223;42.650;23.364;2024-02-21T02:11:45;95372.97;;;5.17;73.23
11099;BME280;12223;42.650;23.364;2024-02-21T02:14:11;95376.09;;;5.19;72.94
11099;BME280;12223;42.650;23.364;2024-02-21T02:16:37;95376.25;;;5.04;72.91
11099;BME280;12223;42.650;23.364;2024-02-21T02:19:03;95372.97;;;5.17;73.03
11099;BME280;12223;42.650;23.364;2024-02-21T02:21:39;95373.94;;;5.16;71.19
11099;BME280;12223;42.650;23.364;2024-02-21T02:24:07;95369.56;;;5.09;72.46
11099;BME280;12223;42.650;23.364;2024-02-21T02:26:33;95374.88;;;5.01;73.28
11099;BME280;12223;42.650;23.364;2024-02-21T02:29:01;95373.09;;;5.02;72.58
11099;BME280;12223;42.650;23.364;2024-02-21T02:31:28;95361.31;;;5.14;71.96
11099;BME280;12223;42.650;23.364;2024-02-21T02:33:53;95367.72;;;4.90;74.27
11099;BME280;12223;42.650;23.364;2024-02-21T02:36:19;95361.19;;;4.81;74.06
11099;BME280;12223;42.650;23.364;2024-02-21T02:38:47;95356.50;;;4.91;73.84
11099;BME280;12223;42.650;23.364;2024-02-21T02:41:12;95359.47;;;4.95;72.47
11099;BME280;12223;42.650;23.364;2024-02-21T02:43:38;95358.38;;;4.69;73.26
11099;BME280;12223;42.650;23.364;2024-02-21T02:46:03;95357.06;;;4.80;75.03
11099;BME280;12223;42.650;23.364;2024-02-21T02:48:30;95354.16;;;4.96;72.92
11099;BME280;12223;42.650;23.364;2024-02-21T02:50:56;95357.63;;;4.82;74.87
11099;BME280;12223;42.650;23.364;2024-02-21T02:53:21;95356.97;;;4.67;74.30
11099;BME280;12223;42.650;23.364;2024-02-21T02:55:47;95356.00;;;4.68;74.85
11099;BME280;12223;42.650;23.364;2024-02-21T02:58:12;95364.34;;;4.83;73.57
11099;BME280;12223;42.650;23.364;2024-02-21T03:00:39;95364.56;;;4.88;73.40
11099;BME280;12223;42.650;23.364;2024-02-21T03:03:04;95361.03;;;4.89;73.78
11099;BME280;12223;42.650;23.364;2024-02-21T03:05:30;95372.88;;;5.03;72.62
11099;BME280;12223;42.650;23.364;2024-02-21T03:07:55;95366.47;;;5.21;72.94
11099;BME280;12223;42.650;23.364;2024-02-21T03:10:21;95366.47;;;5.21;73.43
11099;BME280;12223;42.650;23.364;2024-02-21T03:12:47;95374.66;;;4.96;73.29
11099;BME280;12223;42.650;23.364;2024-02-21T03:15:14;95375.88;;;5.13;73.20
11099;BME280;12223;42.650;23.364;2024-02-21T03:17:40;95381.38;;;4.97;73.72
11099;BME280;12223;42.650;23.364;2024-02-21T03:20:06;95374.22;;;4.86;73.94
11099;BME280;12223;42.650;23.364;2024-02-21T03:22:34;95383.00;;;4.77;75.01
11099;BME280;12223;42.650;23.364;2024-02-21T03:24:59;95377.13;;;4.83;73.80
11099;BME280;12223;42.650;23.364;2024-02-21T03:27:25;95374.19;;;4.80;75.23
11099;BME280;12223;42.650;23.364;2024-02-21T03:29:50;95379.69;;;4.83;73.99
11099;BME280;12223;42.650;23.364;2024-02-21T03:32:16;95384.72;;;5.04;74.15
11099;BME280;12223;42.650;23.364;2024-02-21T03:34:42;95387.50;;;5.09;72.26
11099;BME280;12223;42.650;23.364;2024-02-21T03:37:07;95394.44;;;5.16;74.00
11099;BME280;12223;42.650;23.364;2024-02-21T03:39:33;95386.31;;;5.05;72.85
11099;BME280;12223;42.650;23.364;2024-02-21T03:41:59;95394.78;;;5.06;73.58
11099;BME280;12223;42.650;23.364;2024-02-21T03:44:33;95378.81;;;5.04;72.20
11099;BME280;12223;42.650;23.364;2024-02-21T03:46:59;95399.03;;;4.92;73.63
11099;BME280;12223;42.650;23.364;2024-02-21T03:49:25;95401.78;;;4.84;73.31
11099;BME280;12223;42.650;23.364;2024-02-21T03:51:50;95396.69;;;4.91;73.25
11099;BME280;12223;42.650;23.364;2024-02-21T03:54:16;95400.44;;;4.95;73.38
11099;BME280;12223;42.650;23.364;2024-02-21T03:56:41;95401.16;;;4.82;73.51
11099;BME280;12223;42.650;23.364;2024-02-21T03:59:07;95393.75;;;4.94;73.33
11099;BME280;12223;42.650;23.364;2024-02-21T04:01:36;95386.00;;;4.81;74.52
11099;BME280;12223;42.650;23.364;2024-02-21T04:04:03;95397.19;;;4.73;73.79
11099;BME280;12223;42.650;23.364;2024-02-21T04:06:28;95399.16;;;4.71;75.17
11099;BME280;12223;42.650;23.364;2024-02-21T04:08:54;95395.44;;;4.80;73.35
11099;BME280;12223;42.650;23.364;2024-02-21T04:11:20;95400.53;;;4.74;74.45
11099;BME280;12223;42.650;23.364;2024-02-21T04:13:47;95397.91;;;4.60;74.69
11099;BME280;12223;42.650;23.364;2024-02-21T04:16:15;95389.56;;;4.52;74.52
11099;BME280;12223;42.650;23.364;2024-02-21T04:18:41;95394.78;;;4.65;75.18
11099;BME280;12223;42.650;23.364;2024-02-21T04:21:06;95385.47;;;4.57;74.55
11099;BME280;12223;42.650;23.364;2024-02-21T04:23:33;95390.53;;;4.51;75.32
11099;BME280;12223;42.650;23.364;2024-02-21T04:25:59;95390.78;;;4.56;75.99
11099;BME280;12223;42.650;23.364;2024-02-21T04:28:24;95388.25;;;4.56;76.04
11099;BME280;12223;42.650;23.364;2024-02-21T04:30:50;95393.34;;;4.56;75.44
11099;BME280;12223;42.650;23.364;2024-02-21T04:33:17;95391.38;;;4.58;75.37
11099;BME280;12223;42.650;23.364;2024-02-21T04:35:42;95388.81;;;4.58;75.71
11099;BME280;12223;42.650;23.364;2024-02-21T04:38:07;95386.25;;;4.58;74.87
11099;BME280;12223;42.650;23.364;2024-02-21T04:40:33;95390.69;;;4.77;75.03
11099;BME280;12223;42.650;23.364;2024-02-21T04:43:00;95386.44;;;4.50;74.40
11099;BME280;12223;42.650;23.364;2024-02-21T04:45:25;95394.22;;;4.42;74.50
11099;BME280;12223;42.650;23.364;2024-02-21T04:47:51;95393.25;;;4.43;75.87
11099;BME280;12223;42.650;23.364;2024-02-21T04:50:17;95390.47;;;4.38;76.79
11099;BME280;12223;42.650;23.364;2024-02-21T04:52:43;95389.69;;;4.37;76.69
11099;BME280;12223;42.650;23.364;2024-02-21T04:55:08;95386.38;;;4.43;76.32
11099;BME280;12223;42.650;23.364;2024-02-21T04:57:34;95391.03;;;4.61;75.70
11099;BME280;12223;42.650;23.364;2024-02-21T04:59:59;95386.72;;;4.68;74.75
11099;BME280;12223;42.650;23.364;2024-02-21T05:02:25;95385.91;;;4.67;75.36
11099;BME280;12223;42.650;23.364;2024-02-21T05:04:52;95393.81;;;4.66;73.38
11099;BME280;12223;42.650;23.364;2024-02-21T05:07:18;95387.91;;;4.65;73.65
11099;BME280;12223;42.650;23.364;2024-02-21T05:09:45;95386.31;;;4.64;74.08
11099;BME280;12223;42.650;23.364;2024-02-21T05:12:10;95391.84;;;4.68;74.58
11099;BME280;12223;42.650;23.364;2024-02-21T05:14:35;95392.00;;;4.60;74.17
11099;BME280;12223;42.650;23.364;2024-02-21T05:17:01;95396.16;;;4.67;74.81
11099;BME280;12223;42.650;23.364;2024-02-21T05:19:26;95406.22;;;4.69;73.03
11099;BME280;12223;42.650;23.364;2024-02-21T05:21:52;95409.97;;;4.73;73.80
11099;BME280;12223;42.650;23.364;2024-02-21T05:24:17;95413.00;;;4.49;74.43
11099;BME280;12223;42.650;23.364;2024-02-21T05:26:42;95410.56;;;4.41;75.47
11099;BME280;12223;42.650;23.364;2024-02-21T05:29:08;95401.25;;;4.61;74.46
11099;BME280;12223;42.650;23.364;2024-02-21T05:34:18;95406.13;;;4.90;73.15
11099;BME280;12223;42.650;23.364;2024-02-21T05:36:43;95404.78;;;4.94;71.89
11099;BME280;12223;42.650;23.364;2024-02-21T05:39:09;95409.72;;;4.96;72.28
11099;BME280;12223;42.650;23.364;2024-02-21T05:41:34;95412.69;;;4.99;72.27
11099;BME280;12223;42.650;23.364;2024-02-21T05:44:00;95413.59;;;4.85;72.89
11099;BME280;12223;42.650;23.364;2024-02-21T05:46:25;95408.97;;;5.02;71.76
11099;BME280;12223;42.650;23.364;2024-02-21T05:48:50;95408.75;;;5.03;72.09
11099;BME280;12223;42.650;23.364;2024-02-21T05:51:19;95405.97;;;4.98;72.47
11099;BME280;12223;42.650;23.364;2024-02-21T05:53:44;95419.41;;;5.07;72.13
11099;BME280;12223;42.650;23.364;2024-02-21T05:56:10;95414.31;;;5.07;72.10
11099;BME280;12223;42.650;23.364;2024-02-21T05:58:36;95422.38;;;5.10;72.72
11099;BME280;12223;42.650;23.364;2024-02-21T06:01:03;95425.56;;;5.12;72.45
11099;BME280;12223;42.650;23.364;2024-02-21T06:03:30;95419.59;;;5.05;72.71
11099;BME280;12223;42.650;23.364;2024-02-21T06:05:55;95414.84;;;4.96;73.09
11099;BME280;12223;42.650;23.364;2024-02-21T06:08:21;95424.78;;;5.19;72.11
11099;BME280;12223;42.650;23.364;2024-02-21T06:10:46;95419.38;;;5.00;72.35
11099;BME280;12223;42.650;23.364;2024-02-21T06:13:14;95432.63;;;5.10;72.32
11099;BME280;12223;42.650;23.364;2024-02-21T06:15:40;95435.44;;;5.22;71.70
11099;BME280;12223;42.650;23.364;2024-02-21T06:18:05;95440.84;;;5.47;71.06
11099;BME280;12223;42.650;23.364;2024-02-21T06:20:31;95443.03;;;5.43;70.19
11099;BME280;12223;42.650;23.364;2024-02-21T06:22:57;95444.03;;;5.55;69.20
11099;BME280;12223;42.650;23.364;2024-02-21T06:25:22;95447.09;;;5.85;68.32
11099;BME280;12223;42.650;23.364;2024-02-21T06:27:47;95449.91;;;6.10;68.03
11099;BME280;12223;42.650;23.364;2024-02-21T06:30:13;95447.34;;;6.56;66.32
11099;BME280;12223;42.650;23.364;2024-02-21T06:32:38;95456.81;;;8.22;61.39
11099;BME280;12223;42.650;23.364;2024-02-21T06:35:05;95452.72;;;9.25;57.18
11099;BME280;12223;42.650;23.364;2024-02-21T06:37:30;95454.06;;;9.64;55.91
11099;BME280;12223;42.650;23.364;2024-02-21T06:39:57;95453.88;;;10.26;52.83
11099;BME280;12223;42.650;23.364;2024-02-21T06:42:24;95452.56;;;9.38;53.38
11099;BME280;12223;42.650;23.364;2024-02-21T06:44:51;95464.69;;;7.58;60.04
11099;BME280;12223;42.650;23.364;2024-02-21T06:47:17;95466.06;;;6.90;62.85
11099;BME280;12223;42.650;23.364;2024-02-21T06:49:42;95474.19;;;6.87;63.63
11099;BME280;12223;42.650;23.364;2024-02-21T06:52:08;95481.09;;;6.86;63.48
11099;BME280;12223;42.650;23.364;2024-02-21T06:54:33;95473.22;;;6.55;65.23
11099;BME280;12223;42.650;23.364;2024-02-21T06:56:58;95487.00;;;7.00;63.97
11099;BME280;12223;42.650;23.364;2024-02-21T06:59:24;95472.78;;;6.97;62.86
11099;BME280;12223;42.650;23.364;2024-02-21T07:01:53;95480.53;;;6.71;63.83
11099;BME280;12223;42.650;23.364;2024-02-21T07:04:18;95475.19;;;6.59;64.97
11099;BME280;12223;42.650;23.364;2024-02-21T07:06:44;95473.19;;;6.74;64.63
11099;BME280;12223;42.650;23.364;2024-02-21T07:09:12;95472.78;;;6.91;64.07
11099;BME280;12223;42.650;23.364;2024-02-21T07:11:38;95475.09;;;7.18;63.17
11099;BME280;12223;42.650;23.364;2024-02-21T07:14:05;95469.91;;;7.32;62.96
11099;BME280;12223;42.650;23.364;2024-02-21T07:16:30;95476.34;;;6.90;64.25
11099;BME280;12223;42.650;23.364;2024-02-21T07:18:57;95468.28;;;6.66;64.61
11099;BME280;12223;42.650;23.364;2024-02-21T07:21:23;95477.94;;;6.64;66.02
11099;BME280;12223;42.650;23.364;2024-02-21T07:23:49;95481.72;;;6.62;65.40
11099;BME280;12223;42.650;23.364;2024-02-21T07:26:14;95479.72;;;6.70;65.59
11099;BME280;12223;42.650;23.364;2024-02-21T07:28:39;95485.63;;;7.04;64.81
11099;BME280;12223;42.650;23.364;2024-02-21T07:31:06;95486.22;;;6.86;64.42
11099;BME280;12223;42.650;23.364;2024-02-21T07:33:32;95484.41;;;7.06;64.36
11099;BME280;12223;42.650;23.364;2024-02-21T07:35:57;95486.22;;;6.93;63.28
11099;BME280;12223;42.650;23.364;2024-02-21T07:38:23;95490.38;;;6.94;64.45
11099;BME280;12223;42.650;23.364;2024-02-21T07:40:48;95490.63;;;6.53;66.10
11099;BME280;12223;42.650;23.364;2024-02-21T07:43:14;95486.22;;;6.79;64.92
11099;BME280;12223;42.650;23.364;2024-02-21T07:45:39;95493.34;;;6.91;64.51
11099;BME280;12223;42.650;23.364;2024-02-21T07:48:05;95481.47;;;6.96;64.50
11099;BME280;12223;42.650;23.364;2024-02-21T07:50:31;95482.56;;;7.33;63.56
11099;BME280;12223;42.650;23.364;2024-02-21T07:52:57;95482.28;;;7.61;62.24
11099;BME280;12223;42.650;23.364;2024-02-21T07:55:22;95478.50;;;7.63;62.17
11099;BME280;12223;42.650;23.364;2024-02-21T07:57:48;95479.53;;;7.94;61.94
11099;BME280;12223;42.650;23.364;2024-02-21T08:00:15;95476.88;;;7.76;61.01
11099;BME280;12223;42.650;23.364;2024-02-21T08:02:51;95470.50;;;7.34;62.84
11099;BME280;12223;42.650;23.364;2024-02-21T08:05:16;95472.56;;;7.05;64.29
11099;BME280;12223;42.650;23.364;2024-02-21T08:07:42;95477.41;;;7.40;62.76
11099;BME280;12223;42.650;23.364;2024-02-21T08:10:08;95478.28;;;7.07;63.26
11099;BME280;12223;42.650;23.364;2024-02-21T08:12:33;95468.84;;;7.52;62.60
11099;BME280;12223;42.650;23.364;2024-02-21T08:14:59;95479.59;;;7.87;61.23
11099;BME280;12223;42.650;23.364;2024-02-21T08:17:25;95485.78;;;7.73;61.66
11099;BME280;12223;42.650;23.364;2024-02-21T08:19:50;95484.03;;;8.05;60.75
11099;BME280;12223;42.650;23.364;2024-02-21T08:22:17;95477.09;;;7.67;60.93
11099;BME280;12223;42.650;23.364;2024-02-21T08:24:42;95477.06;;;8.12;59.94
11099;BME280;12223;42.650;23.364;2024-02-21T08:27:08;95476.25;;;8.49;58.86
11099;BME280;12223;42.650;23.364;2024-02-21T08:29:33;95465.69;;;8.26;58.75
11099;BME280;12223;42.650;23.364;2024-02-21T08:32:00;95469.03;;;8.33;59.49
11099;BME280;12223;42.650;23.364;2024-02-21T08:34:25;95468.97;;;8.89;57.92
11099;BME280;12223;42.650;23.364;2024-02-21T08:36:50;95470.06;;;9.18;56.46
11099;BME280;12223;42.650;23.364;2024-02-21T08:39:16;95461.75;;;9.53;54.92
11099;BME280;12223;42.650;23.364;2024-02-21T08:41:42;95471.97;;;8.62;57.45
11099;BME280;12223;42.650;23.364;2024-02-21T08:44:07;95475.69;;;8.90;57.09
11099;BME280;12223;42.650;23.364;2024-02-21T08:46:33;95473.19;;;8.59;57.36
11099;BME280;12223;42.650;23.364;2024-02-21T08:48:58;95470.03;;;8.26;58.74
11099;BME280;12223;42.650;23.364;2024-02-21T08:51:24;95468.88;;;7.90;59.08
11099;BME280;12223;42.650;23.364;2024-02-21T08:53:50;95467.97;;;8.09;58.51
11099;BME280;12223;42.650;23.364;2024-02-21T08:56:16;95476.13;;;8.63;57.46
11099;BME280;12223;42.650;23.364;2024-02-21T08:58:43;95465.03;;;9.23;56.15
11099;BME280;12223;42.650;23.364;2024-02-21T09:01:08;95458.53;;;8.60;55.98
11099;BME280;12223;42.650;23.364;2024-02-21T09:03:37;95476.91;;;8.38;56.78
11099;BME280;12223;42.650;23.364;2024-02-21T09:06:06;95477.00;;;8.19;57.95
11099;BME280;12223;42.650;23.364;2024-02-21T09:08:32;95473.06;;;8.16;58.28
11099;BME280;12223;42.650;23.364;2024-02-21T09:11:00;95473.69;;;8.49;56.79
11099;BME280;12223;42.650;23.364;2024-02-21T09:13:27;95477.00;;;9.00;54.54
11099;BME280;12223;42.650;23.364;2024-02-21T09:15:53;95468.97;;;8.40;56.27
11099;BME280;12223;42.650;23.364;2024-02-21T09:18:19;95466.28;;;8.28;56.99
11099;BME280;12223;42.650;23.364;2024-02-21T09:20:45;95475.94;;;8.01;58.39
11099;BME280;12223;42.650;23.364;2024-02-21T09:23:11;95477.59;;;7.83;58.11
11099;BME280;12223;42.650;23.364;2024-02-21T09:25:37;95473.53;;;8.06;57.90
11099;BME280;12223;42.650;23.364;2024-02-21T09:28:02;95463.28;;;8.31;57.33
11099;BME280;12223;42.650;23.364;2024-02-21T09:30:28;95460.84;;;8.11;58.66
11099;BME280;12223;42.650;23.364;2024-02-21T09:32:54;95456.47;;;8.68;56.59
11099;BME280;12223;42.650;23.364;2024-02-21T09:35:19;95464.28;;;8.55;58.16
11099;BME280;12223;42.650;23.364;2024-02-21T09:37:50;95463.78;;;8.46;57.81
11099;BME280;12223;42.650;23.364;2024-02-21T09:40:15;95473.59;;;8.31;58.73
11099;BME280;12223;42.650;23.364;2024-02-21T09:42:44;95477.88;;;8.69;58.13
11099;BME280;12223;42.650;23.364;2024-02-21T09:45:21;95474.00;;;7.97;59.78
11099;BME280;12223;42.650;23.364;2024-02-21T09:50:41;95480.63;;;8.11;59.96
11099;BME280;12223;42.650;23.364;2024-02-21T09:53:10;95472.16;;;8.04;60.10
11099;BME280;12223;42.650;23.364;2024-02-21T09:55:39;95469.66;;;7.91;60.07
11099;BME280;12223;42.650;23.364;2024-02-21T09:58:07;95466.31;;;8.22;59.41
11099;BME280;12223;42.650;23.364;2024-02-21T10:00:32;95466.19;;;8.41;59.39
11099;BME280;12223;42.650;23.364;2024-02-21T10:03:03;95468.06;;;8.77;57.93
11099;BME280;12223;42.650;23.364;2024-02-21T10:05:35;95466.56;;;8.45;57.09
11099;BME280;12223;42.650;23.364;2024-02-21T10:08:01;95469.56;;;8.67;56.13
11099;BME280;12223;42.650;23.364;2024-02-21T10:10:27;95461.03;;;8.41;56.12
11099;BME280;12223;42.650;23.364;2024-02-21T10:12:54;95452.00;;;8.57;54.62
11099;BME280;12223;42.650;23.364;2024-02-21T10:15:21;95443.69;;;8.80;54.87
11099;BME280;12223;42.650;23.364;2024-02-21T10:17:48;95452.31;;;8.42;55.29
11099;BME280;12223;42.650;23.364;2024-02-21T10:20:13;95447.13;;;8.92;55.01
11099;BME280;12223;42.650;23.364;2024-02-21T10:22:40;95446.28;;;8.98;53.60
11099;BME280;12223;42.650;23.364;2024-02-21T10:25:09;95441.31;;;8.96;53.65
11099;BME280;12223;42.650;23.364;2024-02-21T10:27:39;95437.25;;;9.07;54.61
11099;BME280;12223;42.650;23.364;2024-02-21T10:30:06;95435.56;;;9.67;52.33
11099;BME280;12223;42.650;23.364;2024-02-21T10:32:32;95429.69;;;9.90;51.12
11099;BME280;12223;42.650;23.364;2024-02-21T10:35:02;95423.88;;;9.65;52.76
11099;BME280;12223;42.650;23.364;2024-02-21T10:37:31;95425.94;;;10.04;51.53
11099;BME280;12223;42.650;23.364;2024-02-21T10:40:00;95418.75;;;10.06;50.66
11099;BME280;12223;42.650;23.364;2024-02-21T10:42:29;95409.13;;;9.54;50.20
11099;BME280;12223;42.650;23.364;2024-02-21T10:45:00;95399.50;;;9.13;52.98
11099;BME280;12223;42.650;23.364;2024-02-21T10:47:27;95400.91;;;9.45;52.65
11099;BME280;12223;42.650;23.364;2024-02-21T10:50:02;95391.31;;;9.52;52.50
11099;BME280;12223;42.650;23.364;2024-02-21T10:52:58;95396.06;;;9.67;51.06
11099;BME280;12223;42.650;23.364;2024-02-21T10:55:36;95392.38;;;10.04;50.29
11099;BME280;12223;42.650;23.364;2024-02-21T10:58:04;95383.19;;;9.37;50.43
11099;BME280;12223;42.650;23.364;2024-02-21T11:00:30;95390.34;;;9.65;50.79
11099;BME280;12223;42.650;23.364;2024-02-21T11:02:57;95385.44;;;10.16;49.51
11099;BME280;12223;42.650;23.364;2024-02-21T11:05:24;95379.09;;;10.31;47.17
11099;BME280;12223;42.650;23.364;2024-02-21T11:07:49;95375.59;;;10.72;46.89
11099;BME280;12223;42.650;23.364;2024-02-21T11:10:26;95360.25;;;11.05;46.89
11099;BME280;12223;42.650;23.364;2024-02-21T11:13:14;95364.28;;;11.13;46.85
11099;BME280;12223;42.650;23.364;2024-02-21T11:15:40;95364.44;;;11.34;45.51
11099;BME280;12223;42.650;23.364;2024-02-21T11:18:05;95358.69;;;11.61;44.84
11099;BME280;12223;42.650;23.364;2024-02-21T11:20:35;95364.66;;;11.61;43.85
11099;BME280;12223;42.650;23.364;2024-02-21T11:23:00;95358.94;;;10.79;45.50
11099;BME280;12223;42.650;23.364;2024-02-21T11:25:27;95365.25;;;10.60;46.07
11099;BME280;12223;42.650;23.364;2024-02-21T11:28:05;95365.31;;;10.88;46.45
11099;BME280;12223;42.650;23.364;2024-02-21T11:30:33;95357.63;;;10.53;44.68
11099;BME280;12223;42.650;23.364;2024-02-21T11:33:06;95355.19;;;9.94;44.94
11099;BME280;12223;42.650;23.364;2024-02-21T11:35:36;95351.38;;;9.96;45.77
11099;BME280;12223;42.650;23.364;2024-02-21T11:38:12;95351.94;;;9.57;48.32
11099;BME280;12223;42.650;23.364;2024-02-21T11:40:47;95346.97;;;9.44;47.50
11099;BME280;12223;42.650;23.364;2024-02-21T11:43:14;95348.88;;;9.78;47.71
11099;BME280;12223;42.650;23.364;2024-02-21T11:45:40;95340.31;;;10.19;45.38
11099;BME280;12223;42.650;23.364;2024-02-21T11:48:06;95343.47;;;10.56;46.19
11099;BME280;12223;42.650;23.364;2024-02-21T11:50:32;95328.97;;;10.55;44.84
11099;BME280;12223;42.650;23.364;2024-02-21T11:52:58;95324.31;;;10.80;44.83
11099;BME280;12223;42.650;23.364;2024-02-21T11:55:23;95331.31;;;10.10;45.59
11099;BME280;12223;42.650;23.364;2024-02-21T11:57:49;95331.69;;;10.25;46.32
11099;BME280;12223;42.650;23.364;2024-02-21T12:00:19;95335.94;;;10.43;44.40
11099;BME280;12223;42.650;23.364;2024-02-21T12:02:50;95331.22;;;10.40;45.04
11099;BME280;12223;42.650;23.364;2024-02-21T12:05:16;95331.88;;;10.82;44.77
11099;BME280;12223;42.650;23.364;2024-02-21T12:07:42;95338.19;;;10.28;44.76
11099;BME280;12223;42.650;23.364;2024-02-21T12:10:10;95336.38;;;10.16;44.78
11099;BME280;12223;42.650;23.364;2024-02-21T12:12:37;95327.22;;;9.91;45.68
11099;BME280;12223;42.650;23.364;2024-02-21T12:15:04;95332.56;;;10.19;46.11
11099;BME280;12223;42.650;23.364;2024-02-21T12:17:30;95326.06;;;10.51;45.10
11099;BME280;12223;42.650;23.364;2024-02-21T12:19:56;95321.00;;;10.56;45.32
11099;BME280;12223;42.650;23.364;2024-02-21T12:22:24;95312.97;;;10.81;43.01
11099;BME280;12223;42.650;23.364;2024-02-21T12:24:50;95317.03;;;10.77;43.94
11099;BME280;12223;42.650;23.364;2024-02-21T12:27:15;95316.56;;;10.10;46.33
11099;BME280;12223;42.650;23.364;2024-02-21T12:29:40;95318.44;;;9.80;47.42
11099;BME280;12223;42.650;23.364;2024-02-21T12:32:06;95318.97;;;9.59;48.05
11099;BME280;12223;42.650;23.364;2024-02-21T12:34:31;95310.59;;;9.63;48.37
11099;BME280;12223;42.650;23.364;2024-02-21T12:36:58;95307.47;;;9.31;49.36
11099;BME280;12223;42.650;23.364;2024-02-21T12:39:24;95307.34;;;9.38;48.20
11099;BME280;12223;42.650;23.364;2024-02-21T12:41:49;95304.50;;;9.28;49.82
11099;BME280;12223;42.650;23.364;2024-02-21T12:44:15;95307.63;;;9.18;49.74
11099;BME280;12223;42.650;23.364;2024-02-21T12:46:42;95310.44;;;9.47;48.24
11099;BME280;12223;42.650;23.364;2024-02-21T12:49:08;95303.31;;;9.30;49.65
11099;BME280;12223;42.650;23.364;2024-02-21T12:51:34;95303.19;;;9.67;47.46
11099;BME280;12223;42.650;23.364;2024-02-21T12:54:00;95301.19;;;9.92;48.09
11099;BME280;12223;42.650;23.364;2024-02-21T12:56:26;95300.22;;;10.05;47.14
11099;BME280;12223;42.650;23.364;2024-02-21T12:58:53;95299.19;;;10.06;46.72
11099;BME280;12223;42.650;23.364;2024-02-21T13:01:18;95299.44;;;10.28;44.86